sensor_id;sensor_type;location;lat;lon;timestamp;temperature;humidity
22491;DHT22;11412;50.802;4.350;2022-11-15T00:01:35;12.60;99.90
22491;DHT22;11412;50.802;4.350;2022-11-15T00:04:03;12.90;99.90
22491;DHT22;11412;50.802;4.350;2022-11-15T00:06:29;13.10;99.90
22491;DHT22;11412;50.802;4.350;2022-11-15T00:08:57;13.40;99.90
22491;DHT22;11412;50.802;4.350;2022-11-15T00:11:23;13.20;99.90
22491;DHT22;11412;50.802;4.350;2022-11-15T00:13:49;13.00;99.90
22491;DHT22;11412;50.802;4.350;2022-11-15T00:16:14;12.90;99.90
22491;DHT22;11412;50.802;4.350;2022-11-15T00:18:40;13.10;99.90
22491;DHT22;11412;50.802;4.350;2022-11-15T00:21:13;13.00;99.90
22491;DHT22;11412;50.802;4.350;2022-11-15T00:23:39;13.00;99.90
22491;DHT22;11412;50.802;4.350;2022-11-15T00:26:05;13.00;99.90
22491;DHT22;11412;50.802;4.350;2022-11-15T00:28:31;13.40;99.90
22491;DHT22;11412;50.802;4.350;2022-11-15T00:31:05;13.50;99.90
22491;DHT22;11412;50.802;4.350;2022-11-15T00:33:31;13.30;99.90
22491;DHT22;11412;50.802;4.350;2022-11-15T00:36:07;13.40;99.90
22491;DHT22;11412;50.802;4.350;2022-11-15T00:38:35;13.30;99.90
22491;DHT22;11412;50.802;4.350;2022-11-15T00:41:04;13.20;99.90
22491;DHT22;11412;50.802;4.350;2022-11-15T00:43:31;13.10;99.90
22491;DHT22;11412;50.802;4.350;2022-11-15T00:45:57;13.10;99.90
22491;DHT22;11412;50.802;4.350;2022-11-15T00:48:23;12.90;99.90
22491;DHT22;11412;50.802;4.350;2022-11-15T00:50:49;13.20;99.90
22491;DHT22;11412;50.802;4.350;2022-11-15T00:53:15;13.30;99.90
22491;DHT22;11412;50.802;4.350;2022-11-15T00:55:40;13.20;99.90
22491;DHT22;11412;50.802;4.350;2022-11-15T00:58:06;13.50;99.90
22491;DHT22;11412;50.802;4.350;2022-11-15T01:00:32;13.40;99.90
22491;DHT22;11412;50.802;4.350;2022-11-15T01:02:57;13.30;99.90
22491;DHT22;11412;50.802;4.350;2022-11-15T01:05:23;13.20;99.90
22491;DHT22;11412;50.802;4.350;2022-11-15T01:07:53;13.00;99.90
22491;DHT22;11412;50.802;4.350;2022-11-15T01:10:18;12.90;99.90
22491;DHT22;11412;50.802;4.350;2022-11-15T01:12:44;13.20;99.90
22491;DHT22;11412;50.802;4.350;2022-11-15T01:15:10;13.40;99.90
22491;DHT22;11412;50.802;4.350;2022-11-15T01:17:35;13.30;99.90
22491;DHT22;11412;50.802;4.350;2022-11-15T01:20:01;13.20;99.90
22491;DHT22;11412;50.802;4.350;2022-11-15T01:22:27;13.10;99.90
22491;DHT22;11412;50.802;4.350;2022-11-15T01:24:53;13.20;99.90
22491;DHT22;11412;50.802;4.350;2022-11-15T01:27:18;13.20;99.90
22491;DHT22;11412;50.802;4.350;2022-11-15T01:29:44;13.30;99.90
22491;DHT22;11412;50.802;4.350;2022-11-15T01:32:09;13.00;99.90
22491;DHT22;11412;50.802;4.350;2022-11-15T01:34:35;13.00;99.90
22491;DHT22;11412;50.802;4.350;2022-11-15T01:37:01;12.90;99.90
22491;DHT22;11412;50.802;4.350;2022-11-15T01:39:26;13.30;99.90
22491;DHT22;11412;50.802;4.350;2022-11-15T01:41:53;12.80;99.90
22491;DHT22;11412;50.802;4.350;2022-11-15T01:46:58;12.80;99.90
22491;DHT22;11412;50.802;4.350;2022-11-15T01:49:25;13.20;99.90
22491;DHT22;11412;50.802;4.350;2022-11-15T01:51:52;13.10;99.90
22491;DHT22;11412;50.802;4.350;2022-11-15T01:54:20;13.10;99.90
22491;DHT22;11412;50.802;4.350;2022-11-15T01:56:57;12.90;99.90
22491;DHT22;11412;50.802;4.350;2022-11-15T01:59:25;13.00;99.90
22491;DHT22;11412;50.802;4.350;2022-11-15T02:01:51;12.80;99.90
22491;DHT22;11412;50.802;4.350;2022-11-15T02:04:26;12.90;99.90
22491;DHT22;11412;50.802;4.350;2022-11-15T02:06:53;12.90;99.90
22491;DHT22;11412;50.802;4.350;2022-11-15T02:09:19;13.10;99.90
22491;DHT22;11412;50.802;4.350;2022-11-15T02:11:46;12.80;99.90
22491;DHT22;11412;50.802;4.350;2022-11-15T02:14:14;12.80;99.90
22491;DHT22;11412;50.802;4.350;2022-11-15T02:32:54;12.80;99.90
22491;DHT22;11412;50.802;4.350;2022-11-15T02:35:58;12.90;99.90
22491;DHT22;11412;50.802;4.350;2022-11-15T02:38:34;13.00;99.90
22491;DHT22;11412;50.802;4.350;2022-11-15T02:41:10;12.90;99.90
22491;DHT22;11412;50.802;4.350;2022-11-15T02:46:40;12.90;99.90
22491;DHT22;11412;50.802;4.350;2022-11-15T02:49:29;12.90;99.90
22491;DHT22;11412;50.802;4.350;2022-11-15T02:51:56;12.90;99.90
22491;DHT22;11412;50.802;4.350;2022-11-15T02:54:24;13.00;99.90
22491;DHT22;11412;50.802;4.350;2022-11-15T02:56:53;13.40;99.90
22491;DHT22;11412;50.802;4.350;2022-11-15T03:08:32;13.00;99.90
22491;DHT22;11412;50.802;4.350;2022-11-15T03:11:03;12.80;99.90
22491;DHT22;11412;50.802;4.350;2022-11-15T03:19:25;12.70;99.90
22491;DHT22;11412;50.802;4.350;2022-11-15T03:21:56;12.80;99.90
22491;DHT22;11412;50.802;4.350;2022-11-15T03:24:23;12.80;99.90
22491;DHT22;11412;50.802;4.350;2022-11-15T03:26:52;12.70;99.90
22491;DHT22;11412;50.802;4.350;2022-11-15T03:29:24;12.60;99.90
22491;DHT22;11412;50.802;4.350;2022-11-15T03:32:01;12.70;99.90
22491;DHT22;11412;50.802;4.350;2022-11-15T03:37:01;12.60;99.90
22491;DHT22;11412;50.802;4.350;2022-11-15T03:39:28;12.70;99.90
22491;DHT22;11412;50.802;4.350;2022-11-15T03:42:04;12.60;99.90
22491;DHT22;11412;50.802;4.350;2022-11-15T03:44:51;12.50;99.90
22491;DHT22;11412;50.802;4.350;2022-11-15T03:47:38;12.40;99.90
22491;DHT22;11412;50.802;4.350;2022-11-15T03:50:11;12.50;99.90
22491;DHT22;11412;50.802;4.350;2022-11-15T03:52:39;12.50;99.90
22491;DHT22;11412;50.802;4.350;2022-11-15T03:55:09;12.90;99.90
22491;DHT22;11412;50.802;4.350;2022-11-15T03:57:35;12.80;99.90
22491;DHT22;11412;50.802;4.350;2022-11-15T04:00:02;12.60;99.90
22491;DHT22;11412;50.802;4.350;2022-11-15T04:02:28;12.70;99.90
22491;DHT22;11412;50.802;4.350;2022-11-15T04:04:54;13.00;99.90
22491;DHT22;11412;50.802;4.350;2022-11-15T04:07:19;12.90;99.90
22491;DHT22;11412;50.802;4.350;2022-11-15T04:09:45;12.70;99.90
22491;DHT22;11412;50.802;4.350;2022-11-15T04:12:30;12.80;99.90
22491;DHT22;11412;50.802;4.350;2022-11-15T04:15:17;12.60;99.90
22491;DHT22;11412;50.802;4.350;2022-11-15T04:17:48;12.30;99.90
22491;DHT22;11412;50.802;4.350;2022-11-15T04:20:23;12.40;99.90
22491;DHT22;11412;50.802;4.350;2022-11-15T04:23:13;12.60;99.90
22491;DHT22;11412;50.802;4.350;2022-11-15T04:26:11;12.50;99.90
22491;DHT22;11412;50.802;4.350;2022-11-15T04:28:37;12.80;99.90
22491;DHT22;11412;50.802;4.350;2022-11-15T04:31:26;12.50;99.90
22491;DHT22;11412;50.802;4.350;2022-11-15T04:33:52;12.30;99.90
22491;DHT22;11412;50.802;4.350;2022-11-15T04:36:18;12.50;99.90
22491;DHT22;11412;50.802;4.350;2022-11-15T04:39:02;12.60;99.90
22491;DHT22;11412;50.802;4.350;2022-11-15T04:41:28;12.50;99.90
22491;DHT22;11412;50.802;4.350;2022-11-15T04:43:55;12.60;99.90
22491;DHT22;11412;50.802;4.350;2022-11-15T04:46:21;12.60;99.90
22491;DHT22;11412;50.802;4.350;2022-11-15T04:48:46;12.40;99.90
22491;DHT22;11412;50.802;4.350;2022-11-15T04:51:12;12.30;99.90
22491;DHT22;11412;50.802;4.350;2022-11-15T04:53:38;12.50;99.90
22491;DHT22;11412;50.802;4.350;2022-11-15T04:56:04;12.70;99.90
22491;DHT22;11412;50.802;4.350;2022-11-15T04:58:29;12.70;99.90
22491;DHT22;11412;50.802;4.350;2022-11-15T05:00:55;12.50;99.90
22491;DHT22;11412;50.802;4.350;2022-11-15T05:03:21;12.20;99.90
22491;DHT22;11412;50.802;4.350;2022-11-15T05:06:05;12.00;99.90
22491;DHT22;11412;50.802;4.350;2022-11-15T05:08:31;12.20;99.90
22491;DHT22;11412;50.802;4.350;2022-11-15T05:10:56;12.10;99.90
22491;DHT22;11412;50.802;4.350;2022-11-15T05:13:22;12.30;99.90
22491;DHT22;11412;50.802;4.350;2022-11-15T05:15:47;12.10;99.90
22491;DHT22;11412;50.802;4.350;2022-11-15T05:18:13;11.70;99.90
22491;DHT22;11412;50.802;4.350;2022-11-15T05:20:39;11.70;99.90
22491;DHT22;11412;50.802;4.350;2022-11-15T05:23:04;11.80;99.90
22491;DHT22;11412;50.802;4.350;2022-11-15T05:25:30;12.00;99.90
22491;DHT22;11412;50.802;4.350;2022-11-15T05:27:56;11.70;99.90
22491;DHT22;11412;50.802;4.350;2022-11-15T05:30:22;11.80;99.90
22491;DHT22;11412;50.802;4.350;2022-11-15T05:32:48;11.80;99.90
22491;DHT22;11412;50.802;4.350;2022-11-15T05:35:19;11.50;99.90
22491;DHT22;11412;50.802;4.350;2022-11-15T05:37:46;11.70;99.90
22491;DHT22;11412;50.802;4.350;2022-11-15T05:40:12;11.70;99.90
22491;DHT22;11412;50.802;4.350;2022-11-15T05:42:37;11.40;99.90
22491;DHT22;11412;50.802;4.350;2022-11-15T05:45:06;11.10;99.90
22491;DHT22;11412;50.802;4.350;2022-11-15T05:47:34;10.90;99.90
22491;DHT22;11412;50.802;4.350;2022-11-15T05:50:00;10.80;99.90
22491;DHT22;11412;50.802;4.350;2022-11-15T05:52:30;11.00;99.90
22491;DHT22;11412;50.802;4.350;2022-11-15T05:54:56;11.00;99.90
22491;DHT22;11412;50.802;4.350;2022-11-15T05:57:24;11.30;99.90
22491;DHT22;11412;50.802;4.350;2022-11-15T05:59:49;11.50;99.90
22491;DHT22;11412;50.802;4.350;2022-11-15T06:02:15;11.40;99.90
22491;DHT22;11412;50.802;4.350;2022-11-15T06:04:41;11.50;99.90
22491;DHT22;11412;50.802;4.350;2022-11-15T06:07:07;11.40;99.90
22491;DHT22;11412;50.802;4.350;2022-11-15T06:09:32;11.00;99.90
22491;DHT22;11412;50.802;4.350;2022-11-15T06:11:58;11.20;99.90
22491;DHT22;11412;50.802;4.350;2022-11-15T06:14:23;11.20;99.90
22491;DHT22;11412;50.802;4.350;2022-11-15T06:16:49;11.10;99.90
22491;DHT22;11412;50.802;4.350;2022-11-15T06:19:15;11.10;99.90
22491;DHT22;11412;50.802;4.350;2022-11-15T06:21:40;11.20;99.90
22491;DHT22;11412;50.802;4.350;2022-11-15T06:24:06;11.30;99.90
22491;DHT22;11412;50.802;4.350;2022-11-15T06:26:32;10.80;99.90
22491;DHT22;11412;50.802;4.350;2022-11-15T06:28:58;10.60;99.90
22491;DHT22;11412;50.802;4.350;2022-11-15T06:31:23;10.40;99.90
22491;DHT22;11412;50.802;4.350;2022-11-15T06:33:49;10.50;99.90
22491;DHT22;11412;50.802;4.350;2022-11-15T06:36:15;10.50;99.90
22491;DHT22;11412;50.802;4.350;2022-11-15T06:38:43;10.40;99.90
22491;DHT22;11412;50.802;4.350;2022-11-15T06:41:10;10.50;99.90
22491;DHT22;11412;50.802;4.350;2022-11-15T06:43:36;10.50;99.90
22491;DHT22;11412;50.802;4.350;2022-11-15T06:46:03;10.50;99.90
22491;DHT22;11412;50.802;4.350;2022-11-15T06:48:30;10.40;99.90
22491;DHT22;11412;50.802;4.350;2022-11-15T06:50:57;10.40;99.90
22491;DHT22;11412;50.802;4.350;2022-11-15T06:53:24;10.40;99.90
22491;DHT22;11412;50.802;4.350;2022-11-15T06:55:50;10.40;99.90
22491;DHT22;11412;50.802;4.350;2022-11-15T06:58:16;10.40;99.90
22491;DHT22;11412;50.802;4.350;2022-11-15T07:00:42;10.80;99.90
22491;DHT22;11412;50.802;4.350;2022-11-15T07:03:08;10.70;99.90
22491;DHT22;11412;50.802;4.350;2022-11-15T07:05:34;10.90;99.90
22491;DHT22;11412;50.802;4.350;2022-11-15T07:08:00;10.60;99.90
22491;DHT22;11412;50.802;4.350;2022-11-15T07:10:26;10.60;99.90
22491;DHT22;11412;50.802;4.350;2022-11-15T07:12:52;10.50;99.90
22491;DHT22;11412;50.802;4.350;2022-11-15T07:15:19;10.70;99.90
22491;DHT22;11412;50.802;4.350;2022-11-15T07:17:45;10.90;99.90
22491;DHT22;11412;50.802;4.350;2022-11-15T07:20:13;10.90;99.90
22491;DHT22;11412;50.802;4.350;2022-11-15T07:22:39;10.90;99.90
22491;DHT22;11412;50.802;4.350;2022-11-15T07:25:05;10.70;99.90
22491;DHT22;11412;50.802;4.350;2022-11-15T07:27:31;10.80;99.90
22491;DHT22;11412;50.802;4.350;2022-11-15T07:29:56;10.80;99.90
22491;DHT22;11412;50.802;4.350;2022-11-15T07:32:22;10.80;99.90
22491;DHT22;11412;50.802;4.350;2022-11-15T07:34:47;10.90;99.90
22491;DHT22;11412;50.802;4.350;2022-11-15T07:37:13;10.80;99.90
22491;DHT22;11412;50.802;4.350;2022-11-15T07:39:39;10.80;99.90
22491;DHT22;11412;50.802;4.350;2022-11-15T07:42:05;10.90;99.90
22491;DHT22;11412;50.802;4.350;2022-11-15T07:44:49;10.90;99.90
22491;DHT22;11412;50.802;4.350;2022-11-15T07:47:15;10.90;99.90
22491;DHT22;11412;50.802;4.350;2022-11-15T07:49:41;10.90;99.90
22491;DHT22;11412;50.802;4.350;2022-11-15T07:52:06;11.00;99.90
22491;DHT22;11412;50.802;4.350;2022-11-15T07:54:32;10.90;99.90
22491;DHT22;11412;50.802;4.350;2022-11-15T07:56:58;11.00;99.90
22491;DHT22;11412;50.802;4.350;2022-11-15T07:59:23;11.00;99.90
22491;DHT22;11412;50.802;4.350;2022-11-15T08:01:49;11.00;99.90
22491;DHT22;11412;50.802;4.350;2022-11-15T08:04:15;11.00;99.90
22491;DHT22;11412;50.802;4.350;2022-11-15T08:06:41;11.00;99.90
22491;DHT22;11412;50.802;4.350;2022-11-15T08:09:06;11.00;99.90
22491;DHT22;11412;50.802;4.350;2022-11-15T08:11:32;11.10;99.90
22491;DHT22;11412;50.802;4.350;2022-11-15T08:13:58;11.20;99.90
22491;DHT22;11412;50.802;4.350;2022-11-15T08:16:24;11.20;99.90
22491;DHT22;11412;50.802;4.350;2022-11-15T08:18:50;11.40;99.90
22491;DHT22;11412;50.802;4.350;2022-11-15T08:21:19;11.30;99.90
22491;DHT22;11412;50.802;4.350;2022-11-15T08:23:45;11.30;99.90
22491;DHT22;11412;50.802;4.350;2022-11-15T08:26:11;11.20;99.90
22491;DHT22;11412;50.802;4.350;2022-11-15T08:28:37;11.20;99.90
22491;DHT22;11412;50.802;4.350;2022-11-15T08:31:03;11.30;99.90
22491;DHT22;11412;50.802;4.350;2022-11-15T08:33:30;11.30;99.90
22491;DHT22;11412;50.802;4.350;2022-11-15T08:35:57;11.40;99.90
22491;DHT22;11412;50.802;4.350;2022-11-15T08:38:23;11.40;99.90
22491;DHT22;11412;50.802;4.350;2022-11-15T08:40:51;11.30;99.90
22491;DHT22;11412;50.802;4.350;2022-11-15T08:43:17;11.50;99.90
22491;DHT22;11412;50.802;4.350;2022-11-15T08:45:42;11.50;99.90
22491;DHT22;11412;50.802;4.350;2022-11-15T08:48:08;11.50;99.90
22491;DHT22;11412;50.802;4.350;2022-11-15T08:50:34;11.60;99.90
22491;DHT22;11412;50.802;4.350;2022-11-15T08:53:07;11.40;99.90
22491;DHT22;11412;50.802;4.350;2022-11-15T08:55:36;11.30;99.90
22491;DHT22;11412;50.802;4.350;2022-11-15T08:58:03;11.40;99.90
22491;DHT22;11412;50.802;4.350;2022-11-15T09:00:29;11.60;99.90
22491;DHT22;11412;50.802;4.350;2022-11-15T09:02:55;11.90;99.90
22491;DHT22;11412;50.802;4.350;2022-11-15T09:05:21;12.00;99.90
22491;DHT22;11412;50.802;4.350;2022-11-15T09:07:46;12.00;99.90
22491;DHT22;11412;50.802;4.350;2022-11-15T09:10:12;12.00;99.90
22491;DHT22;11412;50.802;4.350;2022-11-15T09:12:38;12.10;99.90
22491;DHT22;11412;50.802;4.350;2022-11-15T09:15:04;12.40;99.90
22491;DHT22;11412;50.802;4.350;2022-11-15T09:17:30;12.30;99.90
22491;DHT22;11412;50.802;4.350;2022-11-15T09:19:56;12.30;99.90
22491;DHT22;11412;50.802;4.350;2022-11-15T09:22:22;12.40;99.90
22491;DHT22;11412;50.802;4.350;2022-11-15T09:24:48;12.50;99.90
22491;DHT22;11412;50.802;4.350;2022-11-15T09:27:13;12.70;99.90
22491;DHT22;11412;50.802;4.350;2022-11-15T09:29:39;13.10;99.90
22491;DHT22;11412;50.802;4.350;2022-11-15T09:32:05;13.20;99.90
22491;DHT22;11412;50.802;4.350;2022-11-15T09:34:30;13.30;99.90
22491;DHT22;11412;50.802;4.350;2022-11-15T09:36:56;13.60;99.90
22491;DHT22;11412;50.802;4.350;2022-11-15T09:39:22;13.70;99.90
22491;DHT22;11412;50.802;4.350;2022-11-15T09:45:06;13.60;99.90
22491;DHT22;11412;50.802;4.350;2022-11-15T09:50:48;13.70;99.90
22491;DHT22;11412;50.802;4.350;2022-11-15T09:53:32;13.40;99.90
22491;DHT22;11412;50.802;4.350;2022-11-15T09:56:10;13.50;99.90
22491;DHT22;11412;50.802;4.350;2022-11-15T10:01:38;13.40;99.90
22491;DHT22;11412;50.802;4.350;2022-11-15T10:04:06;13.30;99.90
22491;DHT22;11412;50.802;4.350;2022-11-15T10:06:33;13.20;99.90
22491;DHT22;11412;50.802;4.350;2022-11-15T10:09:17;13.30;99.90
22491;DHT22;11412;50.802;4.350;2022-11-15T10:11:44;13.40;99.90
22491;DHT22;11412;50.802;4.350;2022-11-15T10:14:20;13.10;99.90
22491;DHT22;11412;50.802;4.350;2022-11-15T10:19:52;13.40;99.90
22491;DHT22;11412;50.802;4.350;2022-11-15T10:24:48;13.60;99.90
22491;DHT22;11412;50.802;4.350;2022-11-15T10:27:18;13.80;99.90
22491;DHT22;11412;50.802;4.350;2022-11-15T10:29:48;14.00;99.90
22491;DHT22;11412;50.802;4.350;2022-11-15T10:32:17;14.40;99.90
22491;DHT22;11412;50.802;4.350;2022-11-15T10:34:43;14.50;99.90
22491;DHT22;11412;50.802;4.350;2022-11-15T10:37:09;14.70;99.90
22491;DHT22;11412;50.802;4.350;2022-11-15T10:39:35;14.90;99.90
22491;DHT22;11412;50.802;4.350;2022-11-15T10:42:25;14.90;99.90
22491;DHT22;11412;50.802;4.350;2022-11-15T10:44:51;14.60;99.90
22491;DHT22;11412;50.802;4.350;2022-11-15T10:47:29;14.40;99.90
22491;DHT22;11412;50.802;4.350;2022-11-15T10:50:11;14.30;99.90
22491;DHT22;11412;50.802;4.350;2022-11-15T10:52:51;14.30;99.90
22491;DHT22;11412;50.802;4.350;2022-11-15T10:57:49;14.50;99.90
22491;DHT22;11412;50.802;4.350;2022-11-15T11:05:26;14.20;99.90
22491;DHT22;11412;50.802;4.350;2022-11-15T11:08:00;14.00;99.90
22491;DHT22;11412;50.802;4.350;2022-11-15T11:10:27;14.20;99.90
22491;DHT22;11412;50.802;4.350;2022-11-15T11:12:53;14.20;99.90
22491;DHT22;11412;50.802;4.350;2022-11-15T11:15:19;14.10;99.90
22491;DHT22;11412;50.802;4.350;2022-11-15T11:20:25;14.10;99.90
22491;DHT22;11412;50.802;4.350;2022-11-15T11:23:05;14.00;99.90
22491;DHT22;11412;50.802;4.350;2022-11-15T11:25:58;14.10;99.90
22491;DHT22;11412;50.802;4.350;2022-11-15T11:31:36;14.50;99.90
22491;DHT22;11412;50.802;4.350;2022-11-15T11:37:17;14.50;99.90
22491;DHT22;11412;50.802;4.350;2022-11-15T11:40:12;14.50;99.90
22491;DHT22;11412;50.802;4.350;2022-11-15T11:48:13;14.30;99.90
22491;DHT22;11412;50.802;4.350;2022-11-15T11:50:41;14.30;99.90
22491;DHT22;11412;50.802;4.350;2022-11-15T11:53:14;14.30;99.90
22491;DHT22;11412;50.802;4.350;2022-11-15T11:55:44;14.10;99.90
22491;DHT22;11412;50.802;4.350;2022-11-15T11:58:46;14.00;99.90
22491;DHT22;11412;50.802;4.350;2022-11-15T12:01:26;14.10;99.90
22491;DHT22;11412;50.802;4.350;2022-11-15T12:04:11;14.20;99.90
22491;DHT22;11412;50.802;4.350;2022-11-15T12:09:38;14.20;99.90
22491;DHT22;11412;50.802;4.350;2022-11-15T12:15:09;14.20;99.90
22491;DHT22;11412;50.802;4.350;2022-11-15T12:17:37;14.10;99.90
22491;DHT22;11412;50.802;4.350;2022-11-15T12:20:17;14.00;99.90
22491;DHT22;11412;50.802;4.350;2022-11-15T12:25:46;14.10;99.90
22491;DHT22;11412;50.802;4.350;2022-11-15T12:30:55;14.20;99.90
22491;DHT22;11412;50.802;4.350;2022-11-15T12:33:46;14.10;99.90
22491;DHT22;11412;50.802;4.350;2022-11-15T12:39:06;14.00;99.90
22491;DHT22;11412;50.802;4.350;2022-11-15T12:41:37;14.00;99.90
22491;DHT22;11412;50.802;4.350;2022-11-15T12:44:04;14.10;99.90
22491;DHT22;11412;50.802;4.350;2022-11-15T12:49:07;14.20;99.90
22491;DHT22;11412;50.802;4.350;2022-11-15T13:02:40;14.50;99.90
22491;DHT22;11412;50.802;4.350;2022-11-15T13:17:46;14.70;99.90
22491;DHT22;11412;50.802;4.350;2022-11-15T13:30:53;14.50;99.90
22491;DHT22;11412;50.802;4.350;2022-11-15T13:33:31;14.20;99.90
22491;DHT22;11412;50.802;4.350;2022-11-15T13:35:59;14.50;99.90
22491;DHT22;11412;50.802;4.350;2022-11-15T13:38:38;14.60;99.90
22491;DHT22;11412;50.802;4.350;2022-11-15T13:41:25;14.50;99.90
22491;DHT22;11412;50.802;4.350;2022-11-15T13:43:53;14.50;99.90
22491;DHT22;11412;50.802;4.350;2022-11-15T13:46:32;14.60;99.90
22491;DHT22;11412;50.802;4.350;2022-11-15T13:49:05;14.50;99.90
22491;DHT22;11412;50.802;4.350;2022-11-15T13:51:49;14.50;99.90
22491;DHT22;11412;50.802;4.350;2022-11-15T13:54:27;14.50;99.90
22491;DHT22;11412;50.802;4.350;2022-11-15T13:57:10;14.40;99.90
22491;DHT22;11412;50.802;4.350;2022-11-15T14:02:15;14.30;99.90
22491;DHT22;11412;50.802;4.350;2022-11-15T14:04:49;14.40;99.90
22491;DHT22;11412;50.802;4.350;2022-11-15T14:07:18;14.70;99.90
22491;DHT22;11412;50.802;4.350;2022-11-15T14:09:44;14.50;99.90
22491;DHT22;11412;50.802;4.350;2022-11-15T14:12:32;14.60;99.90
22491;DHT22;11412;50.802;4.350;2022-11-15T14:15:29;14.60;99.90
22491;DHT22;11412;50.802;4.350;2022-11-15T14:17:56;14.50;99.90
22491;DHT22;11412;50.802;4.350;2022-11-15T14:23:01;14.40;99.90
22491;DHT22;11412;50.802;4.350;2022-11-15T14:25:32;14.30;99.90
22491;DHT22;11412;50.802;4.350;2022-11-15T14:30:54;14.30;99.90
22491;DHT22;11412;50.802;4.350;2022-11-15T14:33:29;14.00;99.90
22491;DHT22;11412;50.802;4.350;2022-11-15T14:35:57;13.80;99.90
22491;DHT22;11412;50.802;4.350;2022-11-15T14:38:24;13.60;99.90
22491;DHT22;11412;50.802;4.350;2022-11-15T14:40:51;13.60;99.90
22491;DHT22;11412;50.802;4.350;2022-11-15T14:43:17;13.80;99.90
22491;DHT22;11412;50.802;4.350;2022-11-15T14:45:43;14.10;99.90
22491;DHT22;11412;50.802;4.350;2022-11-15T14:48:09;13.90;99.90
22491;DHT22;11412;50.802;4.350;2022-11-15T14:50:35;13.90;99.90
22491;DHT22;11412;50.802;4.350;2022-11-15T14:53:01;13.90;99.90
22491;DHT22;11412;50.802;4.350;2022-11-15T14:55:30;13.90;99.90
22491;DHT22;11412;50.802;4.350;2022-11-15T14:57:58;13.80;99.90
22491;DHT22;11412;50.802;4.350;2022-11-15T15:00:24;13.90;99.90
22491;DHT22;11412;50.802;4.350;2022-11-15T15:02:53;13.80;99.90
22491;DHT22;11412;50.802;4.350;2022-11-15T15:05:22;13.80;99.90
22491;DHT22;11412;50.802;4.350;2022-11-15T15:07:49;13.70;99.90
22491;DHT22;11412;50.802;4.350;2022-11-15T15:10:17;13.80;99.90
22491;DHT22;11412;50.802;4.350;2022-11-15T15:12:43;13.60;99.90
22491;DHT22;11412;50.802;4.350;2022-11-15T15:15:19;13.70;99.90
22491;DHT22;11412;50.802;4.350;2022-11-15T15:17:45;13.60;99.90
22491;DHT22;11412;50.802;4.350;2022-11-15T15:20:11;13.50;99.90
22491;DHT22;11412;50.802;4.350;2022-11-15T15:22:37;13.60;99.90
22491;DHT22;11412;50.802;4.350;2022-11-15T15:25:26;13.50;99.90
22491;DHT22;11412;50.802;4.350;2022-11-15T15:27:53;13.50;99.90
22491;DHT22;11412;50.802;4.350;2022-11-15T15:30:19;13.40;99.90
22491;DHT22;11412;50.802;4.350;2022-11-15T15:32:45;13.50;99.90
22491;DHT22;11412;50.802;4.350;2022-11-15T15:35:15;13.30;99.90
22491;DHT22;11412;50.802;4.350;2022-11-15T15:37:42;13.30;99.90
22491;DHT22;11412;50.802;4.350;2022-11-15T15:40:13;13.40;99.90
22491;DHT22;11412;50.802;4.350;2022-11-15T15:42:39;13.30;99.90
22491;DHT22;11412;50.802;4.350;2022-11-15T15:45:05;13.20;99.90
22491;DHT22;11412;50.802;4.350;2022-11-15T15:47:31;13.30;99.90
22491;DHT22;11412;50.802;4.350;2022-11-15T15:49:57;13.30;99.90
22491;DHT22;11412;50.802;4.350;2022-11-15T15:52:22;13.30;99.90
22491;DHT22;11412;50.802;4.350;2022-11-15T15:54:48;13.40;99.90
22491;DHT22;11412;50.802;4.350;2022-11-15T15:57:14;13.40;99.90
22491;DHT22;11412;50.802;4.350;2022-11-15T15:59:40;13.40;99.90
22491;DHT22;11412;50.802;4.350;2022-11-15T16:02:08;13.40;99.90
22491;DHT22;11412;50.802;4.350;2022-11-15T16:04:35;13.50;99.90
22491;DHT22;11412;50.802;4.350;2022-11-15T16:07:01;13.50;99.90
22491;DHT22;11412;50.802;4.350;2022-11-15T16:09:28;13.40;99.90
22491;DHT22;11412;50.802;4.350;2022-11-15T16:12:12;13.60;99.90
22491;DHT22;11412;50.802;4.350;2022-11-15T16:14:38;13.60;99.90
22491;DHT22;11412;50.802;4.350;2022-11-15T16:17:04;13.50;99.90
22491;DHT22;11412;50.802;4.350;2022-11-15T16:19:29;13.70;99.90
22491;DHT22;11412;50.802;4.350;2022-11-15T16:21:55;13.40;99.90
22491;DHT22;11412;50.802;4.350;2022-11-15T16:24:21;13.40;99.90
22491;DHT22;11412;50.802;4.350;2022-11-15T16:26:47;13.40;99.90
22491;DHT22;11412;50.802;4.350;2022-11-15T16:29:13;13.40;99.90
22491;DHT22;11412;50.802;4.350;2022-11-15T16:31:39;13.20;99.90
22491;DHT22;11412;50.802;4.350;2022-11-15T16:34:05;13.30;99.90
22491;DHT22;11412;50.802;4.350;2022-11-15T16:36:33;13.40;99.90
22491;DHT22;11412;50.802;4.350;2022-11-15T16:39:00;13.40;99.90
22491;DHT22;11412;50.802;4.350;2022-11-15T16:41:29;13.40;99.90
22491;DHT22;11412;50.802;4.350;2022-11-15T16:43:55;13.40;99.90
22491;DHT22;11412;50.802;4.350;2022-11-15T16:46:25;13.50;99.90
22491;DHT22;11412;50.802;4.350;2022-11-15T16:48:51;13.40;99.90
22491;DHT22;11412;50.802;4.350;2022-11-15T16:51:18;13.30;99.90
22491;DHT22;11412;50.802;4.350;2022-11-15T16:53:44;13.20;99.90
22491;DHT22;11412;50.802;4.350;2022-11-15T16:56:30;13.20;99.90
22491;DHT22;11412;50.802;4.350;2022-11-15T16:58:57;13.30;99.90
22491;DHT22;11412;50.802;4.350;2022-11-15T17:01:36;13.40;99.90
22491;DHT22;11412;50.802;4.350;2022-11-15T17:04:11;13.30;99.90
22491;DHT22;11412;50.802;4.350;2022-11-15T17:06:42;13.20;99.90
22491;DHT22;11412;50.802;4.350;2022-11-15T17:09:17;13.10;99.90
22491;DHT22;11412;50.802;4.350;2022-11-15T17:11:43;13.40;99.90
22491;DHT22;11412;50.802;4.350;2022-11-15T17:14:10;13.40;99.90
22491;DHT22;11412;50.802;4.350;2022-11-15T17:16:35;13.20;99.90
22491;DHT22;11412;50.802;4.350;2022-11-15T17:19:03;13.30;99.90
22491;DHT22;11412;50.802;4.350;2022-11-15T17:21:30;13.20;99.90
22491;DHT22;11412;50.802;4.350;2022-11-15T17:23:58;13.10;99.90
22491;DHT22;11412;50.802;4.350;2022-11-15T17:26:24;13.00;99.90
22491;DHT22;11412;50.802;4.350;2022-11-15T17:28:54;13.30;99.90
22491;DHT22;11412;50.802;4.350;2022-11-15T17:31:20;13.20;99.90
22491;DHT22;11412;50.802;4.350;2022-11-15T17:33:47;13.30;99.90
22491;DHT22;11412;50.802;4.350;2022-11-15T17:36:13;13.30;99.90
22491;DHT22;11412;50.802;4.350;2022-11-15T17:38:40;13.30;99.90
22491;DHT22;11412;50.802;4.350;2022-11-15T17:41:09;13.40;99.90
22491;DHT22;11412;50.802;4.350;2022-11-15T17:43:36;13.60;99.90
22491;DHT22;11412;50.802;4.350;2022-11-15T17:46:07;13.50;99.90
22491;DHT22;11412;50.802;4.350;2022-11-15T17:48:33;13.40;99.90
22491;DHT22;11412;50.802;4.350;2022-11-15T17:51:01;13.30;99.90
22491;DHT22;11412;50.802;4.350;2022-11-15T17:53:30;13.30;99.90
22491;DHT22;11412;50.802;4.350;2022-11-15T17:58:29;13.50;99.90
22491;DHT22;11412;50.802;4.350;2022-11-15T18:01:25;13.50;99.90